createdAt,value
2022-09-21T00:00:21.102Z,99853.16
2022-09-21T00:02:48.000Z,99851.19
2022-09-21T00:05:14.898Z,99852.38
2022-09-21T00:07:41.728Z,99847.91
2022-09-21T00:10:10.518Z,99851.97
2022-09-21T00:12:40.045Z,99850.09
2022-09-21T00:15:08.386Z,99844.19
2022-09-21T00:17:36.736Z,99850.13
2022-09-21T00:20:05.787Z,99851.84
2022-09-21T00:22:32.933Z,99848.88
2022-09-21T00:25:01.472Z,99845.31
2022-09-21T00:27:30.444Z,99849.44
2022-09-21T00:29:57.747Z,99852.56
2022-09-21T00:32:25.270Z,99845.53
2022-09-21T00:34:52.364Z,99852.28
2022-09-21T00:37:19.590Z,99843.69
2022-09-21T00:39:46.688Z,99857.13
2022-09-21T00:42:18.395Z,99859.16
2022-09-21T00:44:46.555Z,99860.72
2022-09-21T00:47:16.328Z,99855.19
2022-09-21T00:49:49.558Z,99861.28
2022-09-21T00:52:17.754Z,99859.94
2022-09-21T00:54:49.497Z,99863.00
2022-09-21T00:57:17.062Z,99857.22
2022-09-21T00:59:46.835Z,99854.47
2022-09-21T01:02:15.486Z,99863.41
2022-09-21T01:04:42.525Z,99863.00
2022-09-21T01:07:14.170Z,99863.94
2022-09-21T01:09:43.490Z,99862.25
2022-09-21T01:12:26.746Z,99850.69
2022-09-21T01:15:05.659Z,99858.06
2022-09-21T01:17:45.088Z,99854.72
2022-09-21T01:20:50.089Z,99860.91
2022-09-21T01:23:39.990Z,99861.94
2022-09-21T01:26:16.187Z,99862.91
2022-09-21T01:29:13.669Z,99859.31
2022-09-21T01:31:49.124Z,99863.56
2022-09-21T01:34:21.800Z,99857.44
2022-09-21T01:36:50.166Z,99862.69
2022-09-21T01:39:20.744Z,99867.75
2022-09-21T01:41:51.961Z,99866.69
2022-09-21T01:44:23.326Z,99865.00
2022-09-21T01:46:51.110Z,99862.78
2022-09-21T01:49:21.751Z,99869.38
2022-09-21T01:51:53.462Z,99871.47
2022-09-21T01:54:24.952Z,99873.38
2022-09-21T01:56:59.648Z,99873.38
2022-09-21T01:59:35.278Z,99860.47
2022-09-21T02:02:09.897Z,99863.28
2022-09-21T02:04:37.925Z,99863.72
2022-09-21T02:07:05.014Z,99861.75
2022-09-21T02:09:32.810Z,99854.06
2022-09-21T02:12:02.212Z,99851.72
2022-09-21T02:14:33.423Z,99851.31
2022-09-21T02:17:10.726Z,99850.25
2022-09-21T02:19:45.435Z,99850.66
2022-09-21T02:22:18.790Z,99849.81
2022-09-21T02:24:48.295Z,99851.28
2022-09-21T02:27:25.836Z,99849.94
2022-09-21T02:30:02.100Z,99849.13
2022-09-21T02:32:36.078Z,99843.53
2022-09-21T02:35:09.304Z,99848.88
2022-09-21T02:37:44.213Z,99844.88
2022-09-21T02:40:22.440Z,99849.72
2022-09-21T02:42:53.776Z,99854.53
2022-09-21T02:45:25.630Z,99851.66
2022-09-21T02:47:54.454Z,99857.34
2022-09-21T02:50:25.844Z,99854.28
2022-09-21T02:52:54.664Z,99849.13
2022-09-21T02:55:22.738Z,99853.75
2022-09-21T02:57:50.233Z,99852.88
2022-09-21T03:00:17.649Z,99849.41
2022-09-21T03:02:46.209Z,99849.81
2022-09-21T03:05:14.874Z,99851.59
2022-09-21T03:07:41.939Z,99850.31
2022-09-21T03:10:09.686Z,99842.22
2022-09-21T03:12:37.110Z,99851.66
2022-09-21T03:15:04.784Z,99850.00
2022-09-21T03:17:31.731Z,99849.75
2022-09-21T03:19:59.962Z,99846.78
2022-09-21T03:22:27.585Z,99843.13
2022-09-21T03:24:57.546Z,99846.97
2022-09-21T03:27:24.602Z,99844.16
2022-09-21T03:29:51.446Z,99850.72
2022-09-21T03:32:18.385Z,99851.75
2022-09-21T03:34:45.193Z,99851.09
2022-09-21T03:37:13.448Z,99849.47
2022-09-21T03:39:40.279Z,99854.19
2022-09-21T03:42:09.195Z,99861.38
2022-09-21T03:44:37.526Z,99861.28
2022-09-21T03:47:06.695Z,99856.78
2022-09-21T03:49:34.902Z,99859.56
2022-09-21T03:52:02.344Z,99855.06
2022-09-21T03:54:30.735Z,99861.78
2022-09-21T03:56:57.621Z,99855.69
2022-09-21T03:59:24.538Z,99861.63
2022-09-21T04:01:51.446Z,99858.91
2022-09-21T04:04:18.328Z,99855.88
2022-09-21T04:06:46.259Z,99859.66
2022-09-21T04:09:13.300Z,99860.91
2022-09-21T04:11:41.835Z,99861.09
2022-09-21T04:14:08.636Z,99854.53
2022-09-21T04:16:35.480Z,99856.84
2022-09-21T04:19:02.634Z,99856.66
2022-09-21T04:21:30.104Z,99853.19
2022-09-21T04:23:56.953Z,99861.44
2022-09-21T04:26:25.823Z,99860.91
2022-09-21T04:28:55.341Z,99863.72
2022-09-21T04:31:23.683Z,99854.91
2022-09-21T04:33:52.034Z,99861.81
2022-09-21T04:36:20.018Z,99858.66
2022-09-21T04:38:47.236Z,99859.88
2022-09-21T04:41:15.031Z,99867.66
2022-09-21T04:43:42.477Z,99863.25
2022-09-21T04:46:12.886Z,99864.47
2022-09-21T04:48:40.386Z,99868.31
2022-09-21T04:51:08.103Z,99878.88
2022-09-21T04:53:35.879Z,99877.13
2022-09-21T04:56:04.893Z,99875.69
2022-09-21T04:58:32.269Z,99874.00
2022-09-21T05:00:59.413Z,99885.53
2022-09-21T05:03:28.001Z,99886.38
2022-09-21T05:05:56.651Z,99883.75
2022-09-21T05:08:44.202Z,99878.41
2022-09-21T05:11:13.290Z,99878.16
2022-09-21T05:13:40.350Z,99884.53
2022-09-21T05:16:07.283Z,99882.44
2022-09-21T05:18:35.956Z,99888.63
2022-09-21T05:21:04.238Z,99893.31
2022-09-21T05:23:31.942Z,99884.69
2022-09-21T05:25:59.707Z,99886.66
2022-09-21T05:28:27.464Z,99890.88
2022-09-21T05:31:16.595Z,99889.13
2022-09-21T05:33:52.124Z,99887.78
2022-09-21T05:36:41.315Z,99886.41
2022-09-21T05:39:08.746Z,99883.56
2022-09-21T05:41:36.450Z,99891.81
2022-09-21T05:44:03.854Z,99889.63
2022-09-21T05:46:39.198Z,99896.75
2022-09-21T05:49:17.221Z,99897.97
2022-09-21T05:51:54.640Z,99900.09
2022-09-21T05:54:30.567Z,99902.03
2022-09-21T05:57:05.511Z,99899.19
2022-09-21T05:59:57.735Z,99903.75
2022-09-21T06:05:33.914Z,99903.09
2022-09-21T06:11:03.642Z,99904.63
2022-09-21T06:22:32.497Z,99904.81
2022-09-21T06:24:59.353Z,99913.75
2022-09-21T06:30:28.700Z,99910.16
2022-09-21T06:32:59.273Z,99899.03
2022-09-21T06:35:26.542Z,99900.84
2022-09-21T06:37:57.940Z,99907.31
2022-09-21T06:40:24.881Z,99900.25
2022-09-21T06:42:55.926Z,99897.84
2022-09-21T06:45:22.788Z,99893.16
2022-09-21T06:47:49.783Z,99898.84
2022-09-21T06:50:16.715Z,99891.50
2022-09-21T06:52:43.603Z,99887.31
2022-09-21T06:55:12.325Z,99887.03
2022-09-21T06:57:40.006Z,99891.09
2022-09-21T07:00:10.263Z,99889.41
2022-09-21T07:02:37.181Z,99893.84
2022-09-21T07:05:04.731Z,99886.47
2022-09-21T07:07:31.648Z,99882.50
2022-09-21T07:10:07.564Z,99886.47
2022-09-21T07:12:37.470Z,99888.38
2022-09-21T07:15:06.069Z,99894.94
2022-09-21T07:17:33.598Z,99892.50
2022-09-21T07:20:01.964Z,99888.38
2022-09-21T07:22:29.076Z,99895.59
2022-09-21T07:24:56.559Z,99892.34
2022-09-21T07:27:23.755Z,99889.19
2022-09-21T07:29:52.034Z,99891.53
2022-09-21T07:32:19.318Z,99898.84
2022-09-21T07:34:46.667Z,99896.09
2022-09-21T07:37:14.486Z,99897.19
2022-09-21T07:39:41.331Z,99900.34
2022-09-21T07:42:08.241Z,99895.88
2022-09-21T07:44:35.140Z,99893.69
2022-09-21T07:47:03.506Z,99888.91
2022-09-21T07:49:30.517Z,99890.78
2022-09-21T07:52:01.484Z,99885.63
2022-09-21T07:54:31.022Z,99886.03
2022-09-21T07:57:18.119Z,99889.50
2022-09-21T07:59:45.917Z,99891.28
2022-09-21T08:02:14.185Z,99888.06
2022-09-21T08:04:41.085Z,99894.97
2022-09-21T08:07:08.320Z,99891.38
2022-09-21T08:09:35.188Z,99890.97
2022-09-21T08:12:02.448Z,99888.47
2022-09-21T08:14:29.503Z,99882.25
2022-09-21T08:16:56.314Z,99885.00
2022-09-21T08:19:27.691Z,99879.78
2022-09-21T08:21:57.882Z,99880.34
2022-09-21T08:24:26.853Z,99878.66
2022-09-21T08:26:53.849Z,99879.75
2022-09-21T08:29:20.979Z,99885.81
2022-09-21T08:31:48.022Z,99882.78
2022-09-21T08:34:16.218Z,99878.16
2022-09-21T08:36:44.417Z,99875.84
2022-09-21T08:39:11.290Z,99876.56
2022-09-21T08:41:55.687Z,99873.84
2022-09-21T08:44:26.723Z,99868.34
2022-09-21T08:47:03.841Z,99868.69
2022-09-21T08:49:35.241Z,99869.38
2022-09-21T08:52:07.783Z,99868.84
2022-09-21T08:54:41.931Z,99868.84
2022-09-21T08:57:12.000Z,99872.38
2022-09-21T08:59:42.912Z,99868.53
2022-09-21T09:02:30.579Z,99866.84
2022-09-21T09:05:03.394Z,99870.84
2022-09-21T09:07:52.477Z,99857.19
2022-09-21T09:10:36.529Z,99862.50
2022-09-21T09:13:17.979Z,99862.25
2022-09-21T09:15:52.845Z,99861.25
2022-09-21T09:18:29.291Z,99857.16
2022-09-21T09:21:00.836Z,99861.69
2022-09-21T09:23:32.656Z,99863.00
2022-09-21T09:26:01.644Z,99865.97
2022-09-21T09:28:33.948Z,99857.53
2022-09-21T09:31:05.225Z,99858.50
2022-09-21T09:33:46.164Z,99853.63
2022-09-21T09:36:14.121Z,99854.09
2022-09-21T09:38:47.452Z,99860.56
2022-09-21T09:41:39.093Z,99857.56
2022-09-21T09:44:23.108Z,99860.69
2022-09-21T09:47:00.176Z,99851.72
2022-09-21T09:49:36.617Z,99855.19
2022-09-21T09:52:05.395Z,99851.50
2022-09-21T09:54:35.613Z,99851.50
2022-09-21T09:57:04.233Z,99853.22
2022-09-21T09:59:37.119Z,99844.84
2022-09-21T10:02:06.492Z,99840.81
2022-09-21T10:04:34.875Z,99839.34
2022-09-21T10:07:02.014Z,99843.69
2022-09-21T10:09:31.317Z,99839.50
2022-09-21T10:12:01.850Z,99836.34
2022-09-21T10:14:34.274Z,99828.56
2022-09-21T10:17:06.278Z,99834.72
2022-09-21T10:19:33.879Z,99825.50
2022-09-21T10:22:02.724Z,99831.41
2022-09-21T10:24:33.567Z,99815.88
2022-09-21T10:27:10.359Z,99814.56
2022-09-21T10:29:42.753Z,99817.91
2022-09-21T10:32:22.138Z,99815.97
2022-09-21T10:35:18.083Z,99807.66
2022-09-21T10:37:48.409Z,99814.09
2022-09-21T10:40:27.873Z,99801.41
2022-09-21T10:42:58.761Z,99808.25
2022-09-21T10:45:27.207Z,99804.56
2022-09-21T10:47:57.216Z,99807.81
2022-09-21T10:50:29.293Z,99795.09
2022-09-21T10:53:00.699Z,99803.81
2022-09-21T10:55:30.632Z,99787.94
2022-09-21T10:57:59.996Z,99797.22
2022-09-21T11:00:35.422Z,99799.81
2022-09-21T11:03:28.436Z,99789.09
2022-09-21T11:05:57.816Z,99784.78
2022-09-21T11:08:31.102Z,99788.03
2022-09-21T11:11:09.105Z,99787.72
2022-09-21T11:13:42.150Z,99786.84
2022-09-21T11:16:15.338Z,99775.88
2022-09-21T11:18:51.936Z,99787.22
2022-09-21T11:21:27.517Z,99787.66
2022-09-21T11:24:03.783Z,99789.41
2022-09-21T11:29:23.359Z,99785.97
2022-09-21T11:32:06.224Z,99784.66
2022-09-21T11:34:53.603Z,99784.03
2022-09-21T11:37:37.218Z,99781.72
2022-09-21T11:40:16.779Z,99773.53
2022-09-21T11:42:55.975Z,99763.66
2022-09-21T11:45:40.791Z,99767.59
2022-09-21T11:48:20.020Z,99764.34
2022-09-21T11:50:57.626Z,99761.69
2022-09-21T11:53:38.152Z,99766.03
2022-09-21T11:56:31.405Z,99750.13
2022-09-21T11:59:08.149Z,99762.13
2022-09-21T12:01:50.446Z,99767.22
2022-09-21T12:04:37.549Z,99762.88
2022-09-21T12:07:17.786Z,99754.47
2022-09-21T12:10:16.847Z,99767.97
2022-09-21T12:12:50.373Z,99755.28
2022-09-21T12:15:24.517Z,99756.28
2022-09-21T12:18:00.671Z,99755.44
2022-09-21T12:20:36.237Z,99742.94
2022-09-21T12:23:09.049Z,99745.06
2022-09-21T12:25:41.310Z,99746.53
2022-09-21T12:28:17.521Z,99739.28
2022-09-21T12:30:48.057Z,99730.81
2022-09-21T12:33:22.388Z,99733.41
2022-09-21T12:35:55.071Z,99738.09
2022-09-21T12:38:27.628Z,99740.72
2022-09-21T12:41:04.252Z,99728.75
2022-09-21T12:43:37.126Z,99744.50
2022-09-21T12:46:11.229Z,99728.06
2022-09-21T12:48:40.284Z,99738.66
2022-09-21T12:51:13.662Z,99742.63
2022-09-21T12:53:49.878Z,99734.22
2022-09-21T12:56:29.412Z,99728.78
2022-09-21T12:59:17.751Z,99719.31
2022-09-21T13:01:56.305Z,99722.66
2022-09-21T13:04:41.944Z,99726.31
2022-09-21T13:07:44.155Z,99728.63
2022-09-21T13:10:18.856Z,99717.81
2022-09-21T13:12:53.091Z,99716.25
2022-09-21T13:15:25.342Z,99702.78
2022-09-21T13:18:00.066Z,99707.41
2022-09-21T13:20:34.647Z,99705.47
2022-09-21T13:23:02.382Z,99705.19
2022-09-21T13:25:31.175Z,99704.41
2022-09-21T13:28:13.476Z,99700.97
2022-09-21T13:30:42.640Z,99701.75
2022-09-21T13:33:46.583Z,99700.84
2022-09-21T13:36:33.967Z,99702.13
2022-09-21T13:39:18.917Z,99704.09
2022-09-21T13:42:02.483Z,99691.56
2022-09-21T13:44:42.375Z,99701.56
2022-09-21T13:47:12.012Z,99693.09
2022-09-21T13:49:43.521Z,99694.56
2022-09-21T13:52:30.614Z,99697.44
2022-09-21T13:55:00.132Z,99697.19
2022-09-21T13:57:34.987Z,99700.28
2022-09-21T14:00:35.988Z,99690.13
2022-09-21T14:03:06.771Z,99687.56
2022-09-21T14:05:39.755Z,99678.59
2022-09-21T14:08:21.235Z,99675.38
2022-09-21T14:10:53.150Z,99675.69
2022-09-21T14:13:32.366Z,99675.34
2022-09-21T14:16:45.672Z,99670.94
2022-09-21T14:19:50.097Z,99672.28
2022-09-21T14:22:44.426Z,99674.25
2022-09-21T14:25:30.841Z,99667.94
2022-09-21T14:28:12.118Z,99673.03
2022-09-21T14:30:39.939Z,99669.53
2022-09-21T14:33:22.681Z,99671.09
2022-09-21T14:35:51.960Z,99675.94
2022-09-21T14:38:22.791Z,99675.09
2022-09-21T14:40:52.830Z,99677.25
2022-09-21T14:43:25.575Z,99682.66
2022-09-21T14:46:17.201Z,99675.28
2022-09-21T14:48:50.270Z,99664.13
2022-09-21T14:51:23.859Z,99663.84
2022-09-21T14:54:10.265Z,99667.00
2022-09-21T14:57:04.145Z,99671.47
2022-09-21T14:59:48.157Z,99664.63
2022-09-21T15:02:21.201Z,99665.19
2022-09-21T15:05:03.890Z,99659.84
2022-09-21T15:08:00.349Z,99660.66
2022-09-21T15:10:52.995Z,99657.69
2022-09-21T15:13:51.836Z,99661.91
2022-09-21T15:16:26.321Z,99667.19
2022-09-21T15:19:05.921Z,99654.88
2022-09-21T15:21:33.345Z,99657.81
2022-09-21T15:24:16.696Z,99657.00
2022-09-21T15:26:44.324Z,99658.03
2022-09-21T15:29:24.479Z,99654.94
2022-09-21T15:31:51.882Z,99657.84
2022-09-21T15:34:18.947Z,99664.31
2022-09-21T15:36:52.219Z,99664.97
2022-09-21T15:39:24.815Z,99659.56
2022-09-21T15:42:08.313Z,99663.84
2022-09-21T15:44:38.389Z,99659.91
2022-09-21T15:47:09.539Z,99662.91
2022-09-21T15:49:41.561Z,99656.88
2022-09-21T15:52:24.646Z,99660.19
2022-09-21T15:54:56.507Z,99650.88
2022-09-21T15:57:35.956Z,99658.88
2022-09-21T16:00:17.152Z,99657.25
2022-09-21T16:03:02.323Z,99652.22
2022-09-21T16:05:29.633Z,99652.94
2022-09-21T16:08:05.976Z,99660.50
2022-09-21T16:10:39.204Z,99658.59
2022-09-21T16:13:30.919Z,99653.75
2022-09-21T16:16:02.756Z,99651.25
2022-09-21T16:18:35.156Z,99656.75
2022-09-21T16:21:15.043Z,99661.91
2022-09-21T16:23:42.255Z,99657.94
2022-09-21T16:26:19.183Z,99657.09
2022-09-21T16:28:46.329Z,99665.09
2022-09-21T16:31:30.660Z,99673.91
2022-09-21T16:34:04.811Z,99669.75
2022-09-21T16:36:38.068Z,99675.06
2022-09-21T16:39:12.843Z,99671.06
2022-09-21T16:41:47.305Z,99674.06
2022-09-21T16:44:20.657Z,99674.09
2022-09-21T16:46:52.817Z,99677.06
2022-09-21T16:49:21.778Z,99677.25
2022-09-21T16:51:49.583Z,99670.56
2022-09-21T16:54:17.983Z,99677.41
2022-09-21T16:56:46.456Z,99686.06
2022-09-21T16:59:16.337Z,99684.72
2022-09-21T17:01:43.773Z,99687.19
2022-09-21T17:04:13.467Z,99681.34
2022-09-21T17:06:40.621Z,99691.50
2022-09-21T17:09:20.872Z,99691.13
2022-09-21T17:11:49.184Z,99690.00
2022-09-21T17:14:16.254Z,99693.94
2022-09-21T17:16:47.792Z,99689.50
2022-09-21T17:19:17.518Z,99687.19
2022-09-21T17:21:45.556Z,99683.63
2022-09-21T17:24:27.530Z,99684.09
2022-09-21T17:27:00.310Z,99688.25
2022-09-21T17:29:28.308Z,99690.06
2022-09-21T17:31:57.955Z,99680.03
2022-09-21T17:34:27.599Z,99684.69
2022-09-21T17:36:55.415Z,99692.97
2022-09-21T17:39:23.679Z,99689.31
2022-09-21T17:41:53.311Z,99693.16
2022-09-21T17:44:39.818Z,99690.97
2022-09-21T17:47:13.808Z,99691.75
2022-09-21T17:49:42.687Z,99695.38
2022-09-21T17:52:34.295Z,99691.53
2022-09-21T17:55:05.833Z,99693.00
2022-09-21T17:57:46.000Z,99692.47
2022-09-21T18:00:18.494Z,99695.91
2022-09-21T18:02:46.166Z,99702.78
2022-09-21T18:05:24.006Z,99699.22
2022-09-21T18:07:51.356Z,99702.31
2022-09-21T18:10:19.125Z,99698.31
2022-09-21T18:13:14.212Z,99709.94
2022-09-21T18:15:54.338Z,99714.00
2022-09-21T18:18:35.197Z,99716.28
2022-09-21T18:21:09.035Z,99719.16
2022-09-21T18:23:45.043Z,99721.59
2022-09-21T18:26:16.537Z,99719.53
2022-09-21T18:28:45.796Z,99724.00
2022-09-21T18:31:32.691Z,99721.13
2022-09-21T18:34:13.904Z,99729.53
2022-09-21T18:36:48.599Z,99730.66
2022-09-21T18:39:24.758Z,99727.44
2022-09-21T18:42:09.194Z,99729.03
2022-09-21T18:44:44.673Z,99733.50
2022-09-21T18:47:19.473Z,99728.63
2022-09-21T18:49:54.808Z,99724.44
2022-09-21T18:52:39.606Z,99735.53
2022-09-21T18:55:23.705Z,99733.44
2022-09-21T18:57:51.407Z,99732.34
2022-09-21T19:00:21.581Z,99736.69
2022-09-21T19:03:15.342Z,99735.19
2022-09-21T19:05:39.704Z,99732.94
2022-09-21T19:08:16.000Z,99733.53
2022-09-21T19:10:50.410Z,99733.81
2022-09-21T19:13:32.573Z,99738.72
2022-09-21T19:16:11.617Z,99740.66
2022-09-21T19:18:46.413Z,99734.13
2022-09-21T19:21:27.253Z,99740.56
2022-09-21T19:24:06.291Z,99738.91
2022-09-21T19:26:40.371Z,99735.88
2022-09-21T19:29:28.112Z,99742.56
2022-09-21T19:31:55.186Z,99731.56
2022-09-21T19:34:22.451Z,99737.00
2022-09-21T19:36:49.770Z,99737.69
2022-09-21T19:39:19.386Z,99735.63
2022-09-21T19:42:00.415Z,99743.84
2022-09-21T19:44:42.033Z,99736.19
2022-09-21T19:47:17.489Z,99741.88
2022-09-21T19:49:48.807Z,99744.22
2022-09-21T19:52:17.935Z,99739.31
2022-09-21T19:55:09.989Z,99734.97
2022-09-21T19:57:56.210Z,99736.91
2022-09-21T20:00:24.118Z,99735.72
2022-09-21T20:03:01.444Z,99738.88
2022-09-21T20:05:37.250Z,99737.94
2022-09-21T20:08:11.131Z,99740.28
2022-09-21T20:11:01.936Z,99741.00
2022-09-21T20:13:49.498Z,99745.19
2022-09-21T20:16:31.235Z,99736.69
2022-09-21T20:19:00.334Z,99740.97
2022-09-21T20:21:35.749Z,99741.03
2022-09-21T20:24:11.489Z,99745.47
2022-09-21T20:26:40.044Z,99744.72
2022-09-21T20:29:08.335Z,99746.69
2022-09-21T20:31:35.337Z,99746.28
2022-09-21T20:34:02.149Z,99742.88
2022-09-21T20:36:29.079Z,99749.56
2022-09-21T20:38:57.784Z,99743.53
2022-09-21T20:41:25.055Z,99748.25
2022-09-21T20:43:53.218Z,99756.00
2022-09-21T20:46:20.351Z,99745.97
2022-09-21T20:48:47.306Z,99745.38
2022-09-21T20:51:14.173Z,99745.38
2022-09-21T20:53:41.293Z,99744.06
2022-09-21T20:56:08.247Z,99741.94
2022-09-21T20:58:35.783Z,99738.34
2022-09-21T21:01:05.472Z,99744.22
2022-09-21T21:03:32.862Z,99736.66
2022-09-21T21:06:10.631Z,99743.84
2022-09-21T21:08:37.615Z,99740.72
2022-09-21T21:11:04.686Z,99734.00
2022-09-21T21:13:31.845Z,99740.38
2022-09-21T21:16:00.239Z,99733.50
2022-09-21T21:18:28.506Z,99737.94
2022-09-21T21:20:55.326Z,99734.94
2022-09-21T21:23:22.145Z,99741.41
2022-09-21T21:25:49.057Z,99742.28
2022-09-21T21:28:15.932Z,99741.75
2022-09-21T21:30:42.836Z,99733.72
2022-09-21T21:33:10.166Z,99738.16
2022-09-21T21:35:38.653Z,99736.38
2022-09-21T21:38:05.466Z,99732.28
2022-09-21T21:40:32.395Z,99736.34
2022-09-21T21:42:59.317Z,99743.22
2022-09-21T21:45:26.150Z,99739.41
2022-09-21T21:47:54.365Z,99738.81
2022-09-21T21:50:21.272Z,99734.63
2022-09-21T21:52:50.106Z,99735.28
2022-09-21T21:55:17.161Z,99733.59
2022-09-21T21:57:44.019Z,99727.22
2022-09-21T22:00:12.403Z,99738.81
2022-09-21T22:02:39.261Z,99736.97
2022-09-21T22:05:07.075Z,99737.25
2022-09-21T22:07:33.994Z,99735.72
2022-09-21T22:10:03.035Z,99731.16
2022-09-21T22:12:29.902Z,99735.25
2022-09-21T22:14:56.747Z,99727.34
2022-09-21T22:17:23.779Z,99731.88
2022-09-21T22:19:51.470Z,99723.88
2022-09-21T22:22:18.262Z,99724.25
2022-09-21T22:24:45.238Z,99720.06
2022-09-21T22:27:13.440Z,99719.09
2022-09-21T22:29:40.647Z,99718.72
2022-09-21T22:32:07.495Z,99720.19
2022-09-21T22:34:34.317Z,99717.06
2022-09-21T22:37:01.126Z,99712.03
2022-09-21T22:39:27.990Z,99719.91
2022-09-21T22:41:54.878Z,99709.59
2022-09-21T22:44:23.062Z,99717.19
2022-09-21T22:46:49.920Z,99706.69
2022-09-21T22:49:16.732Z,99710.94
2022-09-21T22:51:43.769Z,99707.66
2022-09-21T22:54:10.590Z,99705.19
2022-09-21T22:56:37.774Z,99701.47
2022-09-21T22:59:05.570Z,99709.34
2022-09-21T23:01:35.672Z,99716.28
2022-09-21T23:04:04.581Z,99702.66
2022-09-21T23:06:33.470Z,99706.84
2022-09-21T23:09:02.355Z,99709.34
2022-09-21T23:11:31.224Z,99710.13
2022-09-21T23:13:59.453Z,99709.50
2022-09-21T23:16:28.076Z,99712.75
2022-09-21T23:18:57.782Z,99707.81
2022-09-21T23:21:26.431Z,99702.78
2022-09-21T23:23:55.742Z,99706.56
2022-09-21T23:26:24.281Z,99701.63
2022-09-21T23:28:53.416Z,99699.31
2022-09-21T23:31:21.112Z,99709.09
2022-09-21T23:33:49.539Z,99697.84
2022-09-21T23:36:19.806Z,99703.53
2022-09-21T23:38:47.773Z,99702.28
2022-09-21T23:41:17.712Z,99698.69
2022-09-21T23:43:45.402Z,99696.63
2022-09-21T23:46:15.058Z,99694.22
2022-09-21T23:48:42.857Z,99693.25
2022-09-21T23:51:10.178Z,99697.03
2022-09-21T23:53:39.201Z,99694.94
2022-09-21T23:56:07.538Z,99689.59
2022-09-21T23:58:34.544Z,99689.38
